Terminal Aerodrome Forecast
Issued by NWS Blacksburg, VA

Home | Current Version | Previous Version | Text Only | Print | Product List | Glossary On
Versions: 1 2 3 4 5 6 7 8 9 10 11 12 13 14 15 16 17 18 19 20 21 22 23 24 25 26 27 28 29 30 31 32 33 34 35 36 37 38 39 40 41 42 43 44 45 46 47 48 49 50
000
FTUS41 KRNK 261124
TAFBLF
TAF
KBLF 261124Z 2612/2712 29012G24KT P6SM SCT010 OVC018
     FM261500 28015G25KT P6SM BKN025
     FM261800 28012G20KT P6SM SCT025 BKN040
     FM270000 27006KT P6SM SCT100
     FM270800 24008KT P6SM BKN070=

USA.gov is the U.S. government's official web portal to all federal, state and local government web resources and services.